createdAt,value
2023-04-20T00:01:06.034Z,5.10
2023-04-20T00:03:55.998Z,4.90
2023-04-20T00:06:44.292Z,7.60
2023-04-20T00:09:36.513Z,7.90
2023-04-20T00:12:25.564Z,7.50
2023-04-20T00:15:14.121Z,7.40
2023-04-20T00:18:02.150Z,7.20
2023-04-20T00:20:50.351Z,7.40
2023-04-20T00:23:38.489Z,7.40
2023-04-20T00:26:27.633Z,7.30
2023-04-20T00:29:18.279Z,7.30
2023-04-20T00:32:06.570Z,7.30
2023-04-20T00:34:54.224Z,7.30
2023-04-20T00:37:41.702Z,7.30
2023-04-20T00:40:29.568Z,7.20
2023-04-20T00:43:19.149Z,7.10
2023-04-20T00:46:09.899Z,9.60
2023-04-20T00:48:57.819Z,7.00
2023-04-20T00:51:48.206Z,7.10
2023-04-20T00:54:37.357Z,7.00
2023-04-20T00:57:25.277Z,6.90
2023-04-20T01:00:16.405Z,6.40
2023-04-20T01:03:07.399Z,6.50
2023-04-20T01:05:56.895Z,6.70
2023-04-20T01:08:48.292Z,6.70
2023-04-20T01:11:35.839Z,6.70
2023-04-20T01:14:23.573Z,7.10
2023-04-20T01:17:15.285Z,6.90
2023-04-20T01:20:08.121Z,6.80
2023-04-20T01:22:57.395Z,6.60
2023-04-20T01:25:45.202Z,6.50
2023-04-20T01:28:33.677Z,6.50
2023-04-20T01:31:22.071Z,6.40
2023-04-20T01:34:11.713Z,6.20
2023-04-20T01:37:03.776Z,6.30
2023-04-20T01:39:53.328Z,6.70
2023-04-20T01:42:42.489Z,7.20
2023-04-20T01:45:31.121Z,6.30
2023-04-20T01:48:18.878Z,6.50
2023-04-20T01:51:08.838Z,6.00
2023-04-20T01:53:56.310Z,5.70
2023-04-20T01:56:45.821Z,5.80
2023-04-20T01:59:33.604Z,7.00
2023-04-20T02:02:22.622Z,7.70
2023-04-20T02:05:10.943Z,6.40
2023-04-20T02:07:58.580Z,6.00
2023-04-20T02:10:46.253Z,5.90
2023-04-20T02:13:35.338Z,5.70
2023-04-20T02:16:25.033Z,5.70
2023-04-20T02:19:12.771Z,5.70
2023-04-20T02:22:00.404Z,5.90
2023-04-20T02:24:47.897Z,5.20
2023-04-20T02:27:35.307Z,5.40
2023-04-20T02:30:26.655Z,4.60
2023-04-20T02:33:14.418Z,5.40
2023-04-20T02:36:03.576Z,5.40
2023-04-20T02:38:53.167Z,5.20
2023-04-20T02:41:41.054Z,5.20
2023-04-20T02:44:29.206Z,5.20
2023-04-20T02:47:19.049Z,5.20
2023-04-20T02:50:07.572Z,5.00
2023-04-20T02:53:06.532Z,5.00
2023-04-20T02:55:57.078Z,5.00
2023-04-20T02:58:55.930Z,4.90
2023-04-20T03:01:56.003Z,4.80
2023-04-20T03:04:47.874Z,4.60
2023-04-20T03:07:40.768Z,4.60
2023-04-20T03:10:31.327Z,4.50
2023-04-20T03:13:25.600Z,4.50
2023-04-20T03:16:17.388Z,4.40
2023-04-20T03:19:09.459Z,4.20
2023-04-20T03:21:58.858Z,4.30
2023-04-20T03:24:47.917Z,4.70
2023-04-20T03:27:47.323Z,3.60
2023-04-20T03:30:35.672Z,4.10
2023-04-20T03:33:27.928Z,4.40
2023-04-20T03:36:15.780Z,4.50
2023-04-20T03:39:05.861Z,4.50
2023-04-20T03:41:53.253Z,4.40
2023-04-20T03:44:41.958Z,4.40
2023-04-20T03:47:30.855Z,4.40
2023-04-20T03:50:18.851Z,4.50
2023-04-20T03:53:06.480Z,4.40
2023-04-20T03:55:56.177Z,4.40
2023-04-20T03:58:44.325Z,4.40
2023-04-20T04:01:39.754Z,4.20
2023-04-20T04:04:27.305Z,4.90
2023-04-20T04:07:17.126Z,5.20
2023-04-20T04:10:06.023Z,4.40
2023-04-20T04:12:57.147Z,4.30
2023-04-20T04:15:45.189Z,4.10
2023-04-20T04:18:34.273Z,4.10
2023-04-20T04:21:26.406Z,4.50
2023-04-20T04:24:19.424Z,4.40
2023-04-20T04:27:29.997Z,4.50
2023-04-20T04:30:20.129Z,4.80
2023-04-20T04:33:10.489Z,4.00
2023-04-20T04:36:00.627Z,5.00
2023-04-20T04:38:49.374Z,5.00
2023-04-20T04:41:37.670Z,5.00
2023-04-20T04:44:43.768Z,5.10
2023-04-20T04:47:37.765Z,5.10
2023-04-20T04:50:28.026Z,6.00
2023-04-20T04:53:15.560Z,5.20
2023-04-20T04:56:07.799Z,5.10
2023-04-20T04:58:56.111Z,2.90
2023-04-20T05:01:43.494Z,5.30
2023-04-20T05:04:33.450Z,5.30
2023-04-20T05:07:26.898Z,5.20
2023-04-20T05:10:15.298Z,5.40
2023-04-20T05:13:03.016Z,5.50
2023-04-20T05:15:50.675Z,5.20
2023-04-20T05:18:39.109Z,5.30
2023-04-20T05:21:29.621Z,5.30
2023-04-20T05:24:17.742Z,5.30
2023-04-20T05:27:05.285Z,5.40
2023-04-20T05:29:53.213Z,5.40
2023-04-20T05:32:41.600Z,5.40
2023-04-20T05:35:29.807Z,5.40
2023-04-20T05:38:18.843Z,5.10
2023-04-20T05:41:06.752Z,5.50
2023-04-20T05:43:55.132Z,5.80
2023-04-20T05:46:42.870Z,5.50
2023-04-20T05:49:31.684Z,5.40
2023-04-20T05:52:19.830Z,5.50
2023-04-20T05:55:09.502Z,5.60
2023-04-20T05:58:05.468Z,5.60
2023-04-20T06:00:53.417Z,5.70
2023-04-20T06:03:47.513Z,5.50
2023-04-20T06:06:36.041Z,6.90
2023-04-20T06:09:23.450Z,5.90
2023-04-20T06:12:19.657Z,6.00
2023-04-20T06:15:11.197Z,5.90
2023-04-20T06:18:02.238Z,6.10
2023-04-20T06:20:51.007Z,6.30
2023-04-20T06:23:39.003Z,6.10
2023-04-20T06:26:27.357Z,6.30
2023-04-20T06:29:21.571Z,6.20
2023-04-20T06:32:15.718Z,6.20
2023-04-20T06:35:04.489Z,6.10
2023-04-20T06:38:04.103Z,6.10
2023-04-20T06:40:54.179Z,6.00
2023-04-20T06:43:45.216Z,5.90
2023-04-20T06:49:29.076Z,6.00
2023-04-20T06:55:05.047Z,6.00
2023-04-20T06:57:54.925Z,6.90
2023-04-20T07:00:42.869Z,6.20
2023-04-20T07:03:30.546Z,5.90
2023-04-20T07:06:20.504Z,6.00
2023-04-20T07:09:08.933Z,6.10
2023-04-20T07:11:56.786Z,5.90
2023-04-20T07:14:45.830Z,5.20
2023-04-20T07:17:33.754Z,8.00
2023-04-20T07:20:21.803Z,5.90
2023-04-20T07:23:11.099Z,5.90
2023-04-20T07:26:02.369Z,5.80
2023-04-20T07:28:51.492Z,5.90
2023-04-20T07:31:39.308Z,5.80
2023-04-20T07:34:27.552Z,6.00
2023-04-20T07:37:15.705Z,6.00
2023-04-20T07:40:07.154Z,7.10
2023-04-20T07:42:54.833Z,6.40
2023-04-20T07:45:42.813Z,6.30
2023-04-20T07:48:30.903Z,6.30
2023-04-20T07:51:18.751Z,6.60
2023-04-20T07:54:06.519Z,5.80
2023-04-20T07:56:55.534Z,6.50
2023-04-20T07:59:43.517Z,6.50
2023-04-20T08:02:33.361Z,6.50
2023-04-20T08:05:25.283Z,6.60
2023-04-20T08:08:13.108Z,6.60
2023-04-20T08:11:00.845Z,6.60
2023-04-20T08:13:50.220Z,6.30
2023-04-20T08:16:39.968Z,9.50
2023-04-20T08:19:28.222Z,6.60
2023-04-20T08:22:15.803Z,8.10
2023-04-20T08:25:03.172Z,6.50
2023-04-20T08:27:50.929Z,6.90
2023-04-20T08:30:41.908Z,6.90
2023-04-20T08:33:31.543Z,7.00
2023-04-20T08:36:19.682Z,7.00
2023-04-20T08:39:08.541Z,7.00
2023-04-20T08:41:57.493Z,7.80
2023-04-20T08:44:45.201Z,7.00
2023-04-20T08:47:34.737Z,5.10
2023-04-20T08:50:24.626Z,7.10
2023-04-20T08:53:12.134Z,8.30
2023-04-20T08:56:00.643Z,7.10
2023-04-20T08:58:48.376Z,7.70
2023-04-20T09:01:36.404Z,7.60
2023-04-20T09:04:27.027Z,8.10
2023-04-20T09:07:20.202Z,8.20
2023-04-20T09:10:08.581Z,8.40
2023-04-20T09:12:56.565Z,8.30
2023-04-20T09:15:44.529Z,8.50
2023-04-20T09:18:32.620Z,8.80
2023-04-20T09:21:22.870Z,9.00
2023-04-20T09:24:12.098Z,9.20
2023-04-20T09:27:02.275Z,9.50
2023-04-20T09:29:58.061Z,9.60
2023-04-20T09:32:45.570Z,9.20
2023-04-20T09:35:33.221Z,8.80
2023-04-20T09:38:27.236Z,8.60
2023-04-20T09:41:18.148Z,8.90
2023-04-20T09:44:06.146Z,8.50
2023-04-20T09:46:56.422Z,8.40
2023-04-20T09:49:45.774Z,8.30
2023-04-20T09:52:36.066Z,8.50
2023-04-20T09:55:26.497Z,8.30
2023-04-20T09:58:15.119Z,8.40
2023-04-20T10:01:04.710Z,8.40
2023-04-20T10:03:54.520Z,8.40
2023-04-20T10:06:58.602Z,8.40
2023-04-20T10:09:47.241Z,9.50
2023-04-20T10:12:48.058Z,8.30
2023-04-20T10:15:39.755Z,8.20
2023-04-20T10:18:28.464Z,8.50
2023-04-20T10:21:15.966Z,8.20
2023-04-20T10:24:09.070Z,8.20
2023-04-20T10:26:57.335Z,8.20
2023-04-20T10:30:02.435Z,8.30
2023-04-20T10:32:52.479Z,8.50
2023-04-20T10:35:45.902Z,8.50
2023-04-20T10:38:34.888Z,8.30
2023-04-20T10:41:26.030Z,9.00
2023-04-20T10:44:13.471Z,9.20
2023-04-20T10:47:06.341Z,9.70
2023-04-20T10:49:53.672Z,10.20
2023-04-20T10:52:42.661Z,9.30
2023-04-20T10:58:22.587Z,8.80
2023-04-20T11:01:14.155Z,8.90
2023-04-20T11:04:04.524Z,6.90
2023-04-20T11:06:52.770Z,8.60
2023-04-20T11:09:45.908Z,8.50
2023-04-20T11:12:39.692Z,8.60
2023-04-20T11:15:36.090Z,8.70
2023-04-20T11:18:25.696Z,9.60
2023-04-20T11:21:17.186Z,10.50
2023-04-20T11:24:06.188Z,10.70
2023-04-20T11:26:54.712Z,11.00
2023-04-20T11:29:42.711Z,10.70
2023-04-20T11:32:35.448Z,12.00
2023-04-20T11:35:42.094Z,10.00
2023-04-20T11:38:32.791Z,10.10
2023-04-20T11:41:20.546Z,10.00
2023-04-20T11:44:08.078Z,9.70
2023-04-20T11:46:57.553Z,9.50
2023-04-20T11:49:45.644Z,9.50
2023-04-20T11:52:38.478Z,10.00
2023-04-20T11:55:28.106Z,10.10
2023-04-20T11:58:16.122Z,9.80
2023-04-20T12:01:05.697Z,9.90
2023-04-20T12:03:55.952Z,9.70
2023-04-20T12:06:44.257Z,9.50
2023-04-20T12:09:36.227Z,9.50
2023-04-20T12:12:28.691Z,9.20
2023-04-20T12:15:17.168Z,10.20
2023-04-20T12:18:05.144Z,9.10
2023-04-20T12:20:52.869Z,9.30
2023-04-20T12:23:40.724Z,9.50
2023-04-20T12:26:37.354Z,9.30
2023-04-20T12:29:33.285Z,9.30
2023-04-20T12:32:23.314Z,9.80
2023-04-20T12:35:14.977Z,10.60
2023-04-20T12:38:03.027Z,10.90
2023-04-20T12:40:51.330Z,10.70
2023-04-20T12:43:48.684Z,9.90
2023-04-20T12:46:45.445Z,9.60
2023-04-20T12:49:35.980Z,9.40
2023-04-20T12:52:24.723Z,9.40
2023-04-20T12:55:14.897Z,9.00
2023-04-20T12:58:02.966Z,9.60
2023-04-20T13:00:51.122Z,9.00
2023-04-20T13:03:42.882Z,8.80
2023-04-20T13:06:41.469Z,8.10
2023-04-20T13:09:30.256Z,7.20
2023-04-20T13:12:18.470Z,8.10
2023-04-20T13:15:09.393Z,6.60
2023-04-20T13:17:57.284Z,7.60
2023-04-20T13:20:46.214Z,6.60
2023-04-20T13:23:33.727Z,6.90
2023-04-20T13:26:22.735Z,7.10
2023-04-20T13:29:10.260Z,6.40
2023-04-20T13:31:58.021Z,7.50
2023-04-20T13:34:46.389Z,8.00
2023-04-20T13:37:39.792Z,8.40
2023-04-20T13:40:27.393Z,8.80
2023-04-20T13:43:15.095Z,9.80
2023-04-20T13:46:03.952Z,12.30
2023-04-20T13:48:52.618Z,10.40
2023-04-20T13:51:41.862Z,11.70
2023-04-20T13:54:31.674Z,10.90
2023-04-20T13:57:19.603Z,9.60
2023-04-20T14:00:08.120Z,10.20
2023-04-20T14:02:58.965Z,9.70
2023-04-20T14:05:46.843Z,9.30
2023-04-20T14:08:34.602Z,12.00
2023-04-20T14:11:28.367Z,8.50
2023-04-20T14:14:17.022Z,9.00
2023-04-20T14:17:08.945Z,8.60
2023-04-20T14:19:56.967Z,9.00
2023-04-20T14:22:44.425Z,7.90
2023-04-20T14:25:32.738Z,7.70
2023-04-20T14:28:22.497Z,8.10
2023-04-20T14:31:10.665Z,8.90
2023-04-20T14:33:58.056Z,8.50
2023-04-20T14:36:46.027Z,8.60
2023-04-20T14:39:33.795Z,8.50
2023-04-20T14:42:21.951Z,8.90
2023-04-20T14:45:13.013Z,8.70
2023-04-20T14:48:02.423Z,10.30
2023-04-20T14:50:50.567Z,8.80
2023-04-20T14:53:38.943Z,9.10
2023-04-20T14:56:26.451Z,9.10
2023-04-20T14:59:15.989Z,9.20
2023-04-20T15:02:06.142Z,9.50
2023-04-20T15:04:54.437Z,10.50
2023-04-20T15:07:46.477Z,10.30
2023-04-20T15:10:34.810Z,10.30
2023-04-20T15:13:27.052Z,12.70
2023-04-20T15:16:15.349Z,9.90
2023-04-20T15:19:04.586Z,9.60
2023-04-20T15:21:54.759Z,9.30
2023-04-20T15:24:42.409Z,6.90
2023-04-20T15:27:29.929Z,9.00
2023-04-20T15:30:17.512Z,9.00
2023-04-20T15:33:06.029Z,9.20
2023-04-20T15:35:55.542Z,9.90
2023-04-20T15:38:43.458Z,10.00
2023-04-20T15:41:31.884Z,10.70
2023-04-20T15:44:19.469Z,10.10
2023-04-20T15:47:07.075Z,10.10
2023-04-20T15:50:01.558Z,10.00
2023-04-20T15:52:53.065Z,10.00
2023-04-20T15:55:42.483Z,9.70
2023-04-20T15:58:30.496Z,9.20
2023-04-20T16:01:18.826Z,9.10
2023-04-20T16:04:07.414Z,9.10
2023-04-20T16:06:55.371Z,9.10
2023-04-20T16:09:44.154Z,9.10
2023-04-20T16:12:31.504Z,9.80
2023-04-20T16:15:19.598Z,10.30
2023-04-20T16:18:07.897Z,10.60
2023-04-20T16:21:10.075Z,11.10
2023-04-20T16:23:58.215Z,10.70
2023-04-20T16:26:47.074Z,10.50
2023-04-20T16:29:35.541Z,10.90
2023-04-20T16:32:23.408Z,10.90
2023-04-20T16:35:11.502Z,11.10
2023-04-20T16:37:59.246Z,11.30
2023-04-20T16:40:46.922Z,11.20
2023-04-20T16:43:36.119Z,9.30
2023-04-20T16:46:23.885Z,11.30
2023-04-20T16:49:13.363Z,12.30
2023-04-20T16:52:04.309Z,11.20
2023-04-20T16:54:56.113Z,11.20
2023-04-20T16:57:43.773Z,11.20
2023-04-20T17:00:38.895Z,11.40
2023-04-20T17:03:32.709Z,11.30
2023-04-20T17:06:20.362Z,11.40
2023-04-20T17:09:08.171Z,11.70
2023-04-20T17:11:56.305Z,11.30
2023-04-20T17:14:44.244Z,11.20
2023-04-20T17:17:34.330Z,10.90
2023-04-20T17:20:27.489Z,10.70
2023-04-20T17:23:15.158Z,11.80
2023-04-20T17:26:02.908Z,10.80
2023-04-20T17:28:52.666Z,11.10
2023-04-20T17:31:40.649Z,11.10
2023-04-20T17:34:31.404Z,13.10
2023-04-20T17:37:23.680Z,11.30
2023-04-20T17:40:15.301Z,11.00
2023-04-20T17:43:04.848Z,12.00
2023-04-20T17:45:53.116Z,11.00
2023-04-20T17:48:41.018Z,11.20
2023-04-20T17:51:32.364Z,11.90
2023-04-20T17:54:23.153Z,11.70
2023-04-20T17:57:11.092Z,11.00
2023-04-20T17:59:58.402Z,10.90
2023-04-20T18:02:46.191Z,11.00
2023-04-20T18:05:34.017Z,12.20
2023-04-20T18:08:23.548Z,11.10
2023-04-20T18:11:12.100Z,11.30
2023-04-20T18:14:01.981Z,10.60
2023-04-20T18:16:52.110Z,10.60
2023-04-20T18:19:41.211Z,10.50
2023-04-20T18:22:29.127Z,10.40
2023-04-20T18:25:19.060Z,10.30
2023-04-20T18:28:09.414Z,10.10
2023-04-20T18:30:58.919Z,12.70
2023-04-20T18:33:47.336Z,9.90
2023-04-20T18:36:35.055Z,9.40
2023-04-20T18:39:23.408Z,9.70
2023-04-20T18:42:12.604Z,9.60
2023-04-20T18:45:00.323Z,9.50
2023-04-20T18:47:51.375Z,10.90
2023-04-20T18:50:39.153Z,9.30
2023-04-20T18:53:27.723Z,9.20
2023-04-20T18:56:15.728Z,9.00
2023-04-20T18:59:04.996Z,9.10
2023-04-20T19:01:52.715Z,8.40
2023-04-20T19:04:40.580Z,9.10
2023-04-20T19:07:28.573Z,8.90
2023-04-20T19:10:18.524Z,8.80
2023-04-20T19:13:06.423Z,8.60
2023-04-20T19:15:58.331Z,8.50
2023-04-20T19:18:46.914Z,8.40
2023-04-20T19:21:35.994Z,8.40
2023-04-20T19:24:23.461Z,8.40
2023-04-20T19:27:11.083Z,8.30
2023-04-20T19:29:58.729Z,8.20
2023-04-20T19:32:47.663Z,8.40
2023-04-20T19:35:35.832Z,8.30
2023-04-20T19:38:26.536Z,7.10
2023-04-20T19:41:16.308Z,8.40
2023-04-20T19:44:06.492Z,8.20
2023-04-20T19:46:54.051Z,8.20
2023-04-20T19:49:47.097Z,8.00
2023-04-20T19:52:37.325Z,8.10
2023-04-20T19:55:25.662Z,8.00
2023-04-20T19:58:13.528Z,7.90
2023-04-20T20:01:04.386Z,8.10
2023-04-20T20:03:54.084Z,7.70
2023-04-20T20:06:44.196Z,7.60
2023-04-20T20:09:32.512Z,7.50
2023-04-20T20:12:19.873Z,7.20
2023-04-20T20:15:08.312Z,7.40
2023-04-20T20:17:56.015Z,7.30
2023-04-20T20:20:43.422Z,7.20
2023-04-20T20:23:32.383Z,7.30
2023-04-20T20:26:20.238Z,7.20
2023-04-20T20:29:09.790Z,7.10
2023-04-20T20:31:57.782Z,7.20
2023-04-20T20:34:46.085Z,7.30
2023-04-20T20:37:34.883Z,7.30
2023-04-20T20:40:24.634Z,7.30
2023-04-20T20:43:13.055Z,7.30
2023-04-20T20:46:00.650Z,7.30
2023-04-20T20:48:48.572Z,7.40
2023-04-20T20:51:36.693Z,7.40
2023-04-20T20:54:24.344Z,7.40
2023-04-20T20:57:13.608Z,7.40
2023-04-20T21:00:01.557Z,7.40
2023-04-20T21:02:49.328Z,7.30
2023-04-20T21:05:37.310Z,6.50
2023-04-20T21:08:25.312Z,7.00
2023-04-20T21:11:13.121Z,6.90
2023-04-20T21:14:03.241Z,6.40
2023-04-20T21:16:53.610Z,6.30
2023-04-20T21:19:41.195Z,7.10
2023-04-20T21:22:30.539Z,6.20
2023-04-20T21:25:18.786Z,6.10
2023-04-20T21:28:06.612Z,6.00
2023-04-20T21:30:55.664Z,6.00
2023-04-20T21:33:43.271Z,7.70
2023-04-20T21:36:31.139Z,6.00
2023-04-20T21:39:19.876Z,5.00
2023-04-20T21:42:07.871Z,6.10
2023-04-20T21:44:55.220Z,6.20
2023-04-20T21:47:44.841Z,6.30
2023-04-20T21:50:32.581Z,6.00
2023-04-20T21:53:19.987Z,5.80
2023-04-20T21:56:18.990Z,5.70
2023-04-20T21:59:07.243Z,5.70
2023-04-20T22:01:55.130Z,6.80
2023-04-20T22:04:45.878Z,5.60
2023-04-20T22:07:34.965Z,5.50
2023-04-20T22:10:22.631Z,4.20
2023-04-20T22:13:10.754Z,5.40
2023-04-20T22:15:58.583Z,5.50
2023-04-20T22:18:48.229Z,5.50
2023-04-20T22:21:38.001Z,5.70
2023-04-20T22:24:25.578Z,5.60
2023-04-20T22:27:15.475Z,5.40
2023-04-20T22:30:03.365Z,5.40
2023-04-20T22:32:51.528Z,5.30
2023-04-20T22:35:38.928Z,5.40
2023-04-20T22:38:28.149Z,5.40
2023-04-20T22:41:17.464Z,5.50
2023-04-20T22:44:06.072Z,5.50
2023-04-20T22:46:54.562Z,5.40
2023-04-20T22:49:42.798Z,5.30
2023-04-20T22:52:30.912Z,5.30
2023-04-20T22:55:22.642Z,5.40
2023-04-20T22:58:10.066Z,5.50
2023-04-20T23:00:58.064Z,5.60
2023-04-20T23:03:49.061Z,5.70
2023-04-20T23:06:38.854Z,5.70
2023-04-20T23:09:27.283Z,5.80
2023-04-20T23:12:16.664Z,5.90
2023-04-20T23:15:06.151Z,5.80
2023-04-20T23:17:57.235Z,5.90
2023-04-20T23:20:46.046Z,6.00
2023-04-20T23:23:33.934Z,6.00
2023-04-20T23:26:21.724Z,6.00
2023-04-20T23:29:11.115Z,6.00
2023-04-20T23:31:58.842Z,5.90
2023-04-20T23:34:47.509Z,5.90
2023-04-20T23:37:35.721Z,5.50
2023-04-20T23:40:23.252Z,6.30
2023-04-20T23:43:11.006Z,6.20
2023-04-20T23:45:59.959Z,5.90
2023-04-20T23:48:48.990Z,6.80
2023-04-20T23:51:37.259Z,6.20
2023-04-20T23:54:25.622Z,6.30
2023-04-20T23:57:13.472Z,6.40
